Time;durP1;ratioP1;P1;durP2;ratioP2;P2;SDS_P1;SDS_P2;PMS_P1;PMS_P2;Temp;Humidity;BMP_temperature;BMP_pressure;BME280_temperature;BME280_humidity;BME280_pressure;Samples;Min_cycle;Max_cycle;Signal;HPM_P1;HPM_P2
2022/05/25 00:00:21;;;;;;;1.92;1.20;;;22.20;51.00;;;;;;4957289;28;20199;-70
2022/05/25 00:02:48;;;;;;;1.77;1.20;;;22.20;51.10;;;;;;4957112;28;20209;-70
2022/05/25 00:05:15;;;;;;;1.35;1.33;;;22.20;51.00;;;;;;4957342;28;20663;-70
2022/05/25 00:07:43;;;;;;;1.52;1.20;;;22.20;51.10;;;;;;4957305;28;20198;-70
2022/05/25 00:10:10;;;;;;;1.20;1.20;;;22.20;51.00;;;;;;4957242;28;20254;-70
2022/05/25 00:12:38;;;;;;;1.73;1.20;;;22.20;51.10;;;;;;4957281;28;20213;-70
2022/05/25 00:15:07;;;;;;;1.13;1.10;;;22.10;51.00;;;;;;4957371;28;20210;-70
2022/05/25 00:17:35;;;;;;;1.13;1.10;;;22.20;51.20;;;;;;4958426;28;20281;-70
2022/05/25 00:20:02;;;;;;;1.50;1.02;;;22.10;51.10;;;;;;4957869;28;20313;-70
2022/05/25 00:22:40;;;;;;;1.27;1.20;;;22.10;51.00;;;;;;4970022;28;20254;-71
2022/05/25 00:25:08;;;;;;;1.20;1.10;;;22.10;51.00;;;;;;4970216;28;20221;-70
2022/05/25 00:27:35;;;;;;;1.10;1.10;;;22.10;51.20;;;;;;4964923;28;20214;-70
2022/05/25 00:30:02;;;;;;;1.27;1.17;;;22.10;51.20;;;;;;4958253;28;20222;-70
2022/05/25 00:32:32;;;;;;;1.10;1.10;;;22.10;51.10;;;;;;4957628;28;20210;-70
2022/05/25 00:34:59;;;;;;;0.93;0.93;;;22.10;51.20;;;;;;4957104;28;20199;-70
2022/05/25 00:37:26;;;;;;;1.45;1.20;;;22.10;51.10;;;;;;4957048;28;20198;-70
2022/05/25 00:39:53;;;;;;;1.00;1.00;;;22.10;51.20;;;;;;4956551;28;20273;-70
2022/05/25 00:42:20;;;;;;;1.10;1.10;;;22.10;51.30;;;;;;4956561;28;20234;-70
2022/05/25 00:44:48;;;;;;;1.73;1.20;;;22.10;51.20;;;;;;4955452;28;20293;-70
2022/05/25 00:47:15;;;;;;;1.02;1.02;;;22.10;51.30;;;;;;4956995;28;20226;-70
2022/05/25 00:49:43;;;;;;;1.35;1.02;;;22.10;51.20;;;;;;4956558;28;20305;-70
2022/05/25 00:52:11;;;;;;;1.17;1.17;;;22.00;51.20;;;;;;4957003;28;20262;-70
2022/05/25 00:54:40;;;;;;;0.90;0.90;;;22.10;51.30;;;;;;4957036;28;20197;-71
2022/05/25 00:57:08;;;;;;;1.40;1.30;;;22.00;51.30;;;;;;4956625;28;20607;-70
2022/05/25 00:59:36;;;;;;;1.45;1.20;;;22.00;51.20;;;;;;4956052;28;20229;-70
2022/05/25 01:02:03;;;;;;;1.23;1.13;;;22.00;51.20;;;;;;4957531;28;20191;-70
2022/05/25 01:04:30;;;;;;;1.85;1.20;;;22.00;51.10;;;;;;4957339;28;20314;-71
2022/05/25 01:07:16;;;;;;;1.70;1.17;;;22.00;51.20;;;;;;4956303;28;20202;-70
2022/05/25 01:09:49;;;;;;;1.20;1.10;;;22.00;51.30;;;;;;4956890;28;20222;-71
2022/05/25 01:12:28;;;;;;;1.30;1.20;;;22.00;51.90;;;;;;4956621;28;20199;-71
2022/05/25 01:15:04;;;;;;;1.92;1.10;;;22.00;51.40;;;;;;4960647;28;20191;-70
2022/05/25 01:17:37;;;;;;;1.30;1.20;;;22.00;51.30;;;;;;4957401;28;20210;-70
2022/05/25 01:20:09;;;;;;;1.15;1.10;;;22.00;51.30;;;;;;4956613;29;20277;-70
2022/05/25 01:22:51;;;;;;;1.23;1.13;;;21.90;51.30;;;;;;4956769;28;20242;-71
2022/05/25 01:25:27;;;;;;;1.23;1.15;;;22.00;51.40;;;;;;4956254;28;20226;-72
2022/05/25 01:27:55;;;;;;;1.10;1.10;;;21.90;51.40;;;;;;4956112;28;20209;-71
2022/05/25 01:30:23;;;;;;;1.40;1.30;;;22.00;51.40;;;;;;4955874;28;20198;-70
2022/05/25 01:32:57;;;;;;;1.23;1.10;;;21.90;51.30;;;;;;4956306;28;20266;-70
2022/05/25 01:35:29;;;;;;;1.08;1.08;;;21.90;51.90;;;;;;4955962;29;20191;-70
2022/05/25 01:37:58;;;;;;;1.20;1.10;;;21.90;51.30;;;;;;4955563;28;20222;-70
2022/05/25 01:40:29;;;;;;;1.33;1.00;;;22.00;51.50;;;;;;4955610;28;20688;-70
2022/05/25 01:42:57;;;;;;;1.23;1.10;;;21.90;51.40;;;;;;4955290;28;20217;-70
2022/05/25 01:45:29;;;;;;;1.13;1.10;;;21.90;51.30;;;;;;4955067;28;20322;-70
2022/05/25 01:47:56;;;;;;;0.93;0.93;;;21.90;51.40;;;;;;4955254;28;20234;-70
2022/05/25 01:50:30;;;;;;;2.08;1.00;;;21.90;51.50;;;;;;4956644;28;20245;-71
2022/05/25 01:52:58;;;;;;;2.03;1.00;;;21.90;51.40;;;;;;4955776;29;20198;-71
2022/05/25 01:55:26;;;;;;;1.10;1.00;;;21.90;51.50;;;;;;4954976;28;20195;-70
2022/05/25 01:57:55;;;;;;;1.00;1.00;;;21.90;51.40;;;;;;4956401;28;20668;-70
2022/05/25 02:00:28;;;;;;;1.85;1.00;;;21.90;51.50;;;;;;4955091;28;20264;-70
2022/05/25 02:05:41;;;;;;;1.02;0.90;;;21.90;51.40;;;;;;4956432;28;20758;-70
2022/05/25 02:08:11;;;;;;;1.23;1.15;;;21.90;51.40;;;;;;4955094;28;20707;-70
2022/05/25 02:10:47;;;;;;;1.02;1.00;;;21.90;51.50;;;;;;4956479;28;20190;-70
2022/05/25 02:13:26;;;;;;;1.10;1.00;;;21.90;51.50;;;;;;4956264;28;20202;-70
2022/05/25 02:16:04;;;;;;;0.90;0.90;;;21.80;51.40;;;;;;4954824;28;20202;-70
2022/05/25 02:18:35;;;;;;;0.80;0.80;;;21.90;51.50;;;;;;4954899;28;20719;-70
2022/05/25 02:21:05;;;;;;;1.20;1.10;;;21.80;51.30;;;;;;4954777;29;20199;-70
2022/05/25 02:23:38;;;;;;;1.23;1.10;;;21.90;51.50;;;;;;4954505;28;20203;-70
2022/05/25 02:26:09;;;;;;;1.23;1.10;;;21.90;51.40;;;;;;4954548;28;20224;-70
2022/05/25 02:28:39;;;;;;;1.10;1.10;;;21.90;51.50;;;;;;4954500;28;20218;-70
2022/05/25 02:31:09;;;;;;;1.00;1.00;;;21.90;51.50;;;;;;4955796;28;20190;-71
2022/05/25 02:33:39;;;;;;;1.00;1.00;;;21.80;51.30;;;;;;4954773;28;20191;-71
2022/05/25 02:36:08;;;;;;;0.80;0.80;;;21.80;51.40;;;;;;4955596;28;20559;-70
2022/05/25 02:38:37;;;;;;;0.98;0.98;;;21.80;51.50;;;;;;4954566;28;20217;-71
2022/05/25 02:41:05;;;;;;;1.13;1.10;;;21.80;51.50;;;;;;4956090;28;20214;-70
2022/05/25 02:43:32;;;;;;;0.82;0.82;;;21.70;51.30;;;;;;4954367;28;20206;-70
2022/05/25 02:45:59;;;;;;;0.95;0.95;;;21.80;51.40;;;;;;4954472;28;20257;-71
2022/05/25 02:48:28;;;;;;;1.55;1.10;;;21.80;51.50;;;;;;4954620;28;20245;-70
2022/05/25 02:50:55;;;;;;;1.15;1.05;;;21.80;51.40;;;;;;4955006;28;20591;-70
2022/05/25 02:53:22;;;;;;;0.95;0.95;;;21.70;51.20;;;;;;4971458;28;20203;-70
2022/05/25 02:55:49;;;;;;;1.10;1.10;;;21.70;51.30;;;;;;4959703;28;20199;-70
2022/05/25 02:58:16;;;;;;;1.30;0.90;;;21.80;51.50;;;;;;4954518;28;20286;-70
2022/05/25 03:00:43;;;;;;;1.00;1.00;;;21.80;51.40;;;;;;4954339;28;20205;-71
2022/05/25 03:03:12;;;;;;;1.50;1.13;;;21.80;51.50;;;;;;4955553;28;20195;-70
2022/05/25 03:05:42;;;;;;;1.10;1.00;;;21.80;51.40;;;;;;4954331;28;20705;-71
2022/05/25 03:08:10;;;;;;;1.20;1.10;;;21.70;51.30;;;;;;4957204;28;20313;-70
2022/05/25 03:10:37;;;;;;;1.30;1.20;;;21.70;51.30;;;;;;4958361;28;20226;-71
2022/05/25 03:13:05;;;;;;;1.27;1.00;;;21.80;51.20;;;;;;4958454;28;20190;-70
2022/05/25 03:15:33;;;;;;;0.80;0.80;;;21.70;51.20;;;;;;4959800;28;20195;-70
2022/05/25 03:18:00;;;;;;;0.90;0.90;;;21.70;51.30;;;;;;4958650;28;20230;-70
2022/05/25 03:20:27;;;;;;;1.85;0.90;;;21.70;51.20;;;;;;4958348;28;20722;-71
2022/05/25 03:22:55;;;;;;;0.88;0.88;;;21.70;51.30;;;;;;4959566;28;20201;-71
2022/05/25 03:25:22;;;;;;;1.15;1.10;;;21.80;51.60;;;;;;4959165;28;20210;-70
2022/05/25 03:27:50;;;;;;;1.50;1.08;;;21.80;51.50;;;;;;4959431;28;20194;-70
2022/05/25 03:30:18;;;;;;;1.20;0.80;;;21.80;51.30;;;;;;4958017;28;20221;-70
2022/05/25 03:32:45;;;;;;;1.00;1.00;;;21.80;51.10;;;;;;4957860;28;20198;-70
2022/05/25 03:35:11;;;;;;;0.93;0.93;;;21.90;51.10;;;;;;4957703;28;20199;-69
2022/05/25 03:37:39;;;;;;;0.80;0.80;;;21.90;50.90;;;;;;4959052;28;20202;-70
2022/05/25 03:40:10;;;;;;;1.27;1.17;;;21.90;50.80;;;;;;4957564;28;20615;-71
2022/05/25 03:42:37;;;;;;;1.00;1.00;;;22.00;50.80;;;;;;4958049;28;20199;-70
2022/05/25 03:45:05;;;;;;;0.80;0.80;;;22.00;51.00;;;;;;4959015;28;20758;-70
2022/05/25 03:47:31;;;;;;;0.98;0.98;;;22.00;50.90;;;;;;4957760;28;20618;-70
2022/05/25 03:49:59;;;;;;;0.80;0.80;;;22.00;50.60;;;;;;4957520;28;20254;-70
2022/05/25 03:52:26;;;;;;;0.82;0.82;;;22.00;50.70;;;;;;4957662;28;20254;-71
2022/05/25 03:54:53;;;;;;;1.50;0.98;;;22.00;50.70;;;;;;4957340;28;20194;-70
2022/05/25 03:57:21;;;;;;;0.80;0.80;;;22.00;50.50;;;;;;4957459;28;20210;-70
2022/05/25 03:59:48;;;;;;;1.08;1.00;;;22.00;50.40;;;;;;4957644;28;20722;-71
2022/05/25 04:02:15;;;;;;;1.38;1.05;;;22.00;50.50;;;;;;4957520;28;20203;-71
2022/05/25 04:04:42;;;;;;;1.35;0.90;;;21.90;50.40;;;;;;4957138;29;20199;-70
2022/05/25 04:07:09;;;;;;;3.03;1.23;;;21.90;50.40;;;;;;4957208;28;20205;-70
2022/05/25 04:09:36;;;;;;;1.10;1.10;;;21.90;50.40;;;;;;4963113;28;20294;-70
2022/05/25 04:12:04;;;;;;;1.10;1.10;;;21.90;50.40;;;;;;4968147;29;20191;-69
2022/05/25 04:14:32;;;;;;;0.80;0.80;;;21.90;50.50;;;;;;4965614;28;20198;-70
2022/05/25 04:17:00;;;;;;;1.85;1.00;;;21.90;50.50;;;;;;4957470;29;20238;-70
2022/05/25 04:19:27;;;;;;;0.90;0.90;;;21.90;50.30;;;;;;4956034;28;20234;-70
2022/05/25 04:21:54;;;;;;;0.82;0.82;;;21.90;50.50;;;;;;4958636;28;20198;-70
2022/05/25 04:24:21;;;;;;;0.75;0.75;;;21.90;50.40;;;;;;4957446;29;20213;-70
2022/05/25 04:26:48;;;;;;;1.08;1.00;;;21.90;50.50;;;;;;4958499;28;20294;-70
2022/05/25 04:29:15;;;;;;;0.90;0.90;;;21.90;50.40;;;;;;4959016;28;20250;-70
2022/05/25 04:31:43;;;;;;;1.05;1.00;;;21.90;50.40;;;;;;4963391;28;20198;-72
2022/05/25 04:34:13;;;;;;;1.00;1.00;;;21.90;50.50;;;;;;4958389;28;20629;-70
2022/05/25 04:36:41;;;;;;;1.00;1.00;;;21.80;50.40;;;;;;4958750;28;20193;-70
2022/05/25 04:39:08;;;;;;;1.00;1.00;;;21.80;50.40;;;;;;4958086;28;20266;-70
2022/05/25 04:41:36;;;;;;;1.27;0.90;;;21.90;50.30;;;;;;4956832;28;20214;-70
2022/05/25 04:44:03;;;;;;;1.10;1.10;;;21.90;50.40;;;;;;4957997;28;20273;-70
2022/05/25 04:46:32;;;;;;;1.15;1.13;;;21.80;50.30;;;;;;4956784;28;20223;-70
2022/05/25 04:49:01;;;;;;;0.95;0.90;;;21.90;50.60;;;;;;4958132;28;20309;-70
2022/05/25 04:51:28;;;;;;;1.90;1.10;;;21.80;50.40;;;;;;4957809;28;20218;-70
2022/05/25 04:53:55;;;;;;;1.67;1.10;;;21.80;50.40;;;;;;4958202;28;20201;-70
2022/05/25 04:59:08;;;;;;;1.00;1.00;;;21.80;50.50;;;;;;4956755;28;20297;-70
2022/05/25 05:01:35;;;;;;;0.93;0.93;;;21.80;50.50;;;;;;4956648;29;20302;-71
2022/05/25 05:04:03;;;;;;;1.02;1.00;;;21.80;50.60;;;;;;4956530;28;20202;-70
2022/05/25 05:06:32;;;;;;;1.00;1.00;;;21.80;50.60;;;;;;4957735;29;20209;-70
2022/05/25 05:08:59;;;;;;;0.85;0.85;;;21.80;50.60;;;;;;4956591;28;20219;-71
2022/05/25 05:11:26;;;;;;;1.00;1.00;;;21.80;50.70;;;;;;4959503;28;20222;-70
2022/05/25 05:13:54;;;;;;;0.70;0.70;;;21.80;50.60;;;;;;4957728;28;20206;-70
2022/05/25 05:16:20;;;;;;;0.90;0.90;;;21.80;50.60;;;;;;4956150;28;20206;-70
2022/05/25 05:18:57;;;;;;;1.00;1.00;;;21.90;50.60;;;;;;4956644;28;20242;-70
2022/05/25 05:21:42;;;;;;;0.90;0.90;;;21.90;50.60;;;;;;4956859;28;20209;-71
2022/05/25 05:24:09;;;;;;;0.90;0.90;;;21.90;50.60;;;;;;4957948;28;20223;-70
2022/05/25 05:26:38;;;;;;;0.80;0.80;;;21.90;50.60;;;;;;4956048;28;20701;-70
2022/05/25 05:29:05;;;;;;;0.95;0.90;;;22.00;50.60;;;;;;4957105;28;20269;-70
2022/05/25 05:31:32;;;;;;;1.45;1.00;;;22.00;50.40;;;;;;4955481;28;20226;-70
2022/05/25 05:33:59;;;;;;;0.90;0.90;;;22.00;50.40;;;;;;4955647;28;20207;-70
2022/05/25 05:36:27;;;;;;;1.00;1.00;;;22.10;50.40;;;;;;4955763;28;20195;-70
2022/05/25 05:38:57;;;;;;;1.15;0.88;;;22.10;50.30;;;;;;4955452;28;20281;-70
2022/05/25 05:41:25;;;;;;;1.58;1.48;;;22.20;50.30;;;;;;4956141;29;20202;-71
2022/05/25 05:43:53;;;;;;;1.40;1.00;;;22.20;50.40;;;;;;4955357;28;20203;-69
2022/05/25 05:46:20;;;;;;;0.85;0.85;;;22.40;50.30;;;;;;4955373;28;20246;-70
2022/05/25 05:48:47;;;;;;;0.80;0.80;;;22.50;50.00;;;;;;4956924;28;20237;-70
2022/05/25 05:51:14;;;;;;;0.90;0.90;;;22.60;49.70;;;;;;4963417;28;20250;-70
2022/05/25 05:53:43;;;;;;;1.02;1.02;;;22.60;49.60;;;;;;4963542;28;20289;-70
2022/05/25 05:56:12;;;;;;;1.00;1.00;;;22.60;49.50;;;;;;4964957;28;20195;-70
2022/05/25 05:58:39;;;;;;;0.80;0.80;;;22.60;49.40;;;;;;4964372;28;20218;-70
2022/05/25 06:01:06;;;;;;;0.90;0.90;;;22.60;49.40;;;;;;4957440;28;20203;-70
2022/05/25 06:03:33;;;;;;;1.00;1.00;;;22.70;49.60;;;;;;4957801;29;20214;-71
2022/05/25 06:06:01;;;;;;;0.90;0.90;;;22.70;49.50;;;;;;4957545;29;20298;-69
2022/05/25 06:08:29;;;;;;;0.90;0.90;;;22.90;49.20;;;;;;4956450;28;20214;-71
2022/05/25 06:10:57;;;;;;;0.80;0.80;;;23.00;49.30;;;;;;4955874;28;20203;-70
2022/05/25 06:13:25;;;;;;;0.90;0.90;;;23.30;49.00;;;;;;4955717;28;20210;-70
2022/05/25 06:21:22;;;;;;;0.90;0.90;;;24.10;47.40;;;;;;4954808;28;20187;-71
2022/05/25 06:23:49;;;;;;;1.10;1.10;;;24.30;46.90;;;;;;4955016;28;20203;-71
2022/05/25 06:26:17;;;;;;;1.15;1.00;;;24.50;46.30;;;;;;4954805;29;20218;-71
2022/05/25 06:28:46;;;;;;;1.20;1.10;;;24.60;46.10;;;;;;4956241;28;20640;-71
2022/05/25 06:31:13;;;;;;;0.90;0.90;;;24.50;45.90;;;;;;4955931;28;20195;-71
2022/05/25 06:33:43;;;;;;;1.20;1.10;;;24.50;45.70;;;;;;4955756;28;20187;-70
2022/05/25 06:36:14;;;;;;;1.10;1.10;;;24.50;46.00;;;;;;4954702;28;20194;-70
2022/05/25 06:38:41;;;;;;;1.27;0.90;;;24.40;46.30;;;;;;4954365;28;20690;-71
2022/05/25 06:41:08;;;;;;;1.20;1.10;;;24.40;46.40;;;;;;4954433;28;20218;-70
2022/05/25 06:43:35;;;;;;;1.00;1.00;;;24.40;46.50;;;;;;4954326;28;20228;-71
2022/05/25 06:46:04;;;;;;;0.90;0.90;;;24.30;46.40;;;;;;4954586;28;20747;-70
2022/05/25 06:48:31;;;;;;;1.00;1.00;;;24.30;46.60;;;;;;4955925;28;20226;-69
2022/05/25 06:50:58;;;;;;;1.30;1.20;;;24.20;46.50;;;;;;4954469;28;20198;-71
2022/05/25 06:53:25;;;;;;;2.50;1.17;;;24.20;45.60;;;;;;4954627;28;20202;-70
2022/05/25 06:55:52;;;;;;;1.70;1.02;;;24.30;46.00;;;;;;4955923;28;20191;-71
2022/05/25 06:58:19;;;;;;;2.05;1.02;;;24.40;45.80;;;;;;4955708;28;20210;-70
2022/05/25 07:00:46;;;;;;;1.00;1.00;;;24.40;45.70;;;;;;4954757;28;20683;-70
2022/05/25 07:03:15;;;;;;;1.08;1.08;;;24.50;45.70;;;;;;4954638;28;20306;-71
2022/05/25 07:05:42;;;;;;;1.08;0.90;;;24.50;45.50;;;;;;4954531;28;20207;-70
2022/05/25 07:08:09;;;;;;;0.90;0.90;;;24.50;45.70;;;;;;4957167;28;20226;-70
2022/05/25 07:10:35;;;;;;;1.15;1.00;;;24.60;45.80;;;;;;4959229;28;20210;-71
2022/05/25 07:13:03;;;;;;;1.13;1.02;;;24.70;45.70;;;;;;4961304;29;20298;-71
2022/05/25 07:15:30;;;;;;;1.02;1.00;;;24.80;45.50;;;;;;4962525;28;20195;-70
2022/05/25 07:17:57;;;;;;;1.20;1.10;;;25.00;45.20;;;;;;4955642;28;20234;-71
2022/05/25 07:20:26;;;;;;;1.10;1.00;;;25.30;44.60;;;;;;4955857;28;20245;-71
2022/05/25 07:22:52;;;;;;;1.05;0.95;;;25.60;44.10;;;;;;4954122;28;20195;-70
2022/05/25 07:25:21;;;;;;;1.00;1.00;;;25.80;43.70;;;;;;4954124;28;20199;-71
2022/05/25 07:27:48;;;;;;;0.90;0.90;;;26.00;43.90;;;;;;4954434;28;20558;-71
2022/05/25 07:30:16;;;;;;;1.13;1.05;;;26.20;43.00;;;;;;4956543;28;20535;-70
2022/05/25 07:32:43;;;;;;;1.23;1.00;;;26.30;42.60;;;;;;4958556;28;20199;-71
2022/05/25 07:35:10;;;;;;;0.98;0.98;;;26.40;42.40;;;;;;4954612;28;20250;-71
2022/05/25 07:37:40;;;;;;;1.00;1.00;;;26.50;42.30;;;;;;4955770;28;20627;-72
2022/05/25 07:40:09;;;;;;;1.95;0.90;;;26.60;42.10;;;;;;4954052;28;20693;-70
2022/05/25 07:42:36;;;;;;;1.30;0.88;;;26.70;41.90;;;;;;4954247;28;20203;-71
2022/05/25 07:45:04;;;;;;;1.77;1.00;;;26.80;41.70;;;;;;4953937;29;20238;-70
2022/05/25 07:47:33;;;;;;;1.27;0.80;;;26.90;41.40;;;;;;4955744;28;20206;-72
2022/05/25 07:50:00;;;;;;;0.93;0.82;;;27.00;41.90;;;;;;4954185;28;20226;-73
2022/05/25 07:52:28;;;;;;;0.98;0.90;;;27.00;41.10;;;;;;4953891;28;20286;-71
2022/05/25 07:54:57;;;;;;;1.20;1.15;;;27.10;41.00;;;;;;4958621;28;20282;-71
2022/05/25 07:57:24;;;;;;;0.90;0.90;;;27.20;40.90;;;;;;4957294;28;20191;-71
2022/05/25 07:59:51;;;;;;;0.80;0.80;;;27.30;40.70;;;;;;4957112;28;20278;-71
2022/05/25 08:08:07;;;;;;;0.90;0.90;;;27.40;40.50;;;;;;4921314;29;20234;-70
2022/05/25 08:10:36;;;;;;;0.85;0.85;;;27.30;40.70;;;;;;4941438;29;20207;-71
2022/05/25 08:13:02;;;;;;;0.82;0.82;;;27.20;40.80;;;;;;4958452;28;20191;-71
2022/05/25 08:15:31;;;;;;;0.80;0.80;;;27.10;40.90;;;;;;4956810;28;20218;-71
2022/05/25 08:17:58;;;;;;;0.90;0.90;;;27.10;41.10;;;;;;4957108;28;20261;-71
2022/05/25 08:20:25;;;;;;;0.88;0.88;;;27.00;41.20;;;;;;4957095;28;20663;-71
2022/05/25 08:22:52;;;;;;;0.90;0.90;;;27.00;41.10;;;;;;4957153;28;20206;-71
2022/05/25 08:25:20;;;;;;;1.00;1.00;;;27.10;41.00;;;;;;4958304;28;20735;-71
2022/05/25 08:27:48;;;;;;;1.20;1.10;;;27.20;40.70;;;;;;4957266;28;20221;-71
2022/05/25 08:30:18;;;;;;;0.90;0.90;;;27.20;40.70;;;;;;4958160;29;20199;-71
2022/05/25 08:32:46;;;;;;;0.90;0.90;;;27.30;40.50;;;;;;4957098;28;20594;-71
2022/05/25 08:35:13;;;;;;;1.05;1.05;;;27.30;40.50;;;;;;4958309;28;20194;-71
2022/05/25 08:37:41;;;;;;;0.93;0.90;;;27.20;40.70;;;;;;4957000;28;20187;-70
2022/05/25 08:40:09;;;;;;;1.33;1.02;;;27.10;40.90;;;;;;4958936;28;20273;-71
2022/05/25 08:42:41;;;;;;;0.80;0.80;;;27.00;41.30;;;;;;4957171;28;20314;-71
2022/05/25 08:45:10;;;;;;;1.52;1.00;;;26.90;41.70;;;;;;4956979;28;20207;-71
2022/05/25 08:47:38;;;;;;;1.00;1.00;;;26.70;41.80;;;;;;4956472;28;20250;-72
2022/05/25 08:50:06;;;;;;;0.90;0.90;;;26.60;41.90;;;;;;4956810;28;20199;-71
2022/05/25 08:52:35;;;;;;;0.90;0.90;;;26.70;41.80;;;;;;4958025;29;20198;-71
2022/05/25 08:55:02;;;;;;;0.80;0.80;;;26.80;41.60;;;;;;4956539;28;20195;-71
2022/05/25 08:57:31;;;;;;;0.73;0.73;;;27.00;41.30;;;;;;4958397;28;20190;-71
2022/05/25 09:00:00;;;;;;;0.80;0.80;;;27.10;41.00;;;;;;4956272;28;20318;-72
2022/05/25 09:02:30;;;;;;;1.00;1.00;;;27.20;40.90;;;;;;4956482;28;20198;-71
2022/05/25 09:05:01;;;;;;;0.73;0.73;;;27.30;40.80;;;;;;4955543;28;20282;-71
2022/05/25 09:07:40;;;;;;;0.80;0.80;;;27.30;40.80;;;;;;4956658;28;20718;-71
2022/05/25 09:10:08;;;;;;;0.90;0.90;;;27.30;40.60;;;;;;4957537;28;20244;-71
2022/05/25 09:12:37;;;;;;;0.88;0.88;;;27.40;40.70;;;;;;4958587;28;20718;-71
2022/05/25 09:15:05;;;;;;;1.08;1.00;;;27.30;40.60;;;;;;4957599;28;20221;-71
2022/05/25 09:17:35;;;;;;;1.55;1.00;;;27.20;40.80;;;;;;4957991;28;20202;-71
2022/05/25 09:20:02;;;;;;;0.98;0.98;;;27.20;41.10;;;;;;4956332;28;20210;-71
2022/05/25 09:22:31;;;;;;;1.00;1.00;;;27.00;41.40;;;;;;4957134;28;20191;-71
2022/05/25 09:24:58;;;;;;;0.90;0.90;;;26.90;41.70;;;;;;4956117;28;20202;-71
2022/05/25 09:27:29;;;;;;;0.80;0.80;;;26.70;41.70;;;;;;4956020;28;20222;-70
2022/05/25 09:29:57;;;;;;;0.90;0.90;;;26.60;41.90;;;;;;4957135;28;20225;-73
2022/05/25 09:32:46;;;;;;;0.95;0.90;;;26.60;42.30;;;;;;4957915;28;20559;-71
2022/05/25 09:35:14;;;;;;;0.80;0.80;;;26.50;42.70;;;;;;4955265;29;20583;-71
2022/05/25 09:37:45;;;;;;;1.00;1.00;;;26.40;42.90;;;;;;4955536;28;20199;-71
2022/05/25 09:40:18;;;;;;;1.00;1.00;;;26.30;43.70;;;;;;4955292;28;20203;-71
2022/05/25 09:42:50;;;;;;;1.10;0.90;;;26.20;43.40;;;;;;4955395;28;20202;-70
2022/05/25 09:45:17;;;;;;;0.85;0.80;;;26.10;43.60;;;;;;4955541;29;20640;-71
2022/05/25 09:47:47;;;;;;;0.80;0.80;;;26.00;43.60;;;;;;4955296;28;20222;-71
2022/05/25 09:50:16;;;;;;;1.00;1.00;;;25.90;43.80;;;;;;4956492;28;20217;-71
2022/05/25 09:52:46;;;;;;;2.22;1.00;;;25.90;44.00;;;;;;4956190;28;20619;-71
2022/05/25 09:55:16;;;;;;;0.80;0.80;;;25.80;44.00;;;;;;4955302;28;20636;-71
2022/05/25 09:57:45;;;;;;;0.90;0.90;;;25.80;44.20;;;;;;4954998;28;20195;-71
2022/05/25 10:00:21;;;;;;;0.82;0.82;;;25.70;44.10;;;;;;4956041;28;20187;-71
2022/05/25 10:02:51;;;;;;;1.00;1.00;;;25.70;44.10;;;;;;4955018;28;20257;-71
2022/05/25 10:05:23;;;;;;;0.90;0.90;;;25.70;44.10;;;;;;4954925;28;20210;-71
2022/05/25 10:07:52;;;;;;;0.90;0.90;;;25.70;44.10;;;;;;4955937;28;20227;-70
2022/05/25 10:10:26;;;;;;;1.23;1.05;;;25.70;44.00;;;;;;4954651;28;20293;-71
2022/05/25 10:12:59;;;;;;;0.80;0.80;;;25.80;44.00;;;;;;4954839;28;20225;-71
2022/05/25 10:15:30;;;;;;;0.90;0.90;;;25.80;43.90;;;;;;4954765;29;20202;-71
2022/05/25 10:17:59;;;;;;;0.80;0.80;;;25.80;43.80;;;;;;4956493;28;20277;-71
2022/05/25 10:20:28;;;;;;;0.82;0.82;;;25.80;43.90;;;;;;4955103;28;20230;-71
2022/05/25 10:23:02;;;;;;;0.80;0.80;;;25.80;44.10;;;;;;4955162;28;20234;-71
2022/05/25 10:25:34;;;;;;;0.90;0.90;;;25.70;44.10;;;;;;4955168;29;20651;-71
2022/05/25 10:28:01;;;;;;;1.00;1.00;;;25.80;44.10;;;;;;4954590;28;20231;-71
2022/05/25 10:38:58;;;;;;;1.00;0.90;;;26.00;43.70;;;;;;4954543;28;20277;-71
2022/05/25 10:41:41;;;;;;;0.93;0.93;;;26.10;43.60;;;;;;4955644;28;20207;-71
2022/05/25 10:44:11;;;;;;;0.60;0.60;;;26.10;43.50;;;;;;4954342;28;20202;-70
2022/05/25 10:46:40;;;;;;;0.80;0.80;;;26.10;43.40;;;;;;4954167;29;20191;-71
2022/05/25 10:49:10;;;;;;;0.93;0.93;;;26.10;43.30;;;;;;4955558;28;20572;-69
2022/05/25 10:51:39;;;;;;;0.80;0.80;;;26.20;43.40;;;;;;4955726;28;20210;-71
2022/05/25 10:56:56;;;;;;;0.90;0.90;;;26.10;43.40;;;;;;4954382;28;20202;-71
2022/05/25 10:59:25;;;;;;;0.80;0.80;;;26.10;43.50;;;;;;4955611;28;20222;-71
2022/05/25 11:02:15;;;;;;;1.00;1.00;;;26.10;43.60;;;;;;4966983;28;20255;-71
2022/05/25 11:05:12;;;;;;;0.82;0.80;;;26.00;43.60;;;;;;4968064;28;20261;-71
2022/05/25 11:07:40;;;;;;;0.90;0.90;;;25.90;43.60;;;;;;4952065;28;20246;-72
2022/05/25 11:10:14;;;;;;;0.80;0.80;;;26.00;43.80;;;;;;4965658;28;20194;-70
2022/05/25 11:12:47;;;;;;;0.90;0.90;;;25.90;43.70;;;;;;4954403;29;20639;-71
2022/05/25 11:15:19;;;;;;;1.00;1.00;;;25.90;43.80;;;;;;4954121;28;20282;-71
2022/05/25 11:18:01;;;;;;;0.88;0.88;;;25.90;43.90;;;;;;4954096;28;20210;-71
2022/05/25 11:20:34;;;;;;;0.70;0.70;;;25.90;43.90;;;;;;4954508;28;20194;-70
2022/05/25 11:23:22;;;;;;;0.90;0.90;;;25.90;44.00;;;;;;4953953;28;20206;-71
2022/05/25 11:26:21;;;;;;;0.95;0.95;;;25.90;44.00;;;;;;4955725;28;20263;-71
2022/05/25 11:28:53;;;;;;;1.00;1.00;;;25.90;44.10;;;;;;4956034;28;20230;-71
2022/05/25 11:31:24;;;;;;;0.93;0.90;;;25.90;44.10;;;;;;4957850;28;20199;-71
2022/05/25 11:33:55;;;;;;;0.93;0.93;;;25.90;43.90;;;;;;4957828;29;20222;-71
2022/05/25 11:36:32;;;;;;;1.20;0.80;;;25.90;43.90;;;;;;4957668;28;20203;-71
2022/05/25 11:39:03;;;;;;;1.02;1.02;;;25.90;43.80;;;;;;4958969;28;20567;-71
2022/05/25 11:41:36;;;;;;;0.90;0.90;;;25.90;43.80;;;;;;4958942;28;20632;-71
2022/05/25 11:44:31;;;;;;;0.80;0.80;;;25.90;43.90;;;;;;4957448;28;20203;-71
2022/05/25 11:47:01;;;;;;;1.02;0.93;;;25.90;43.90;;;;;;4957236;28;20203;-71
2022/05/25 11:49:59;;;;;;;0.77;0.77;;;25.90;43.90;;;;;;4957323;28;20277;-71
2022/05/25 11:52:50;;;;;;;0.95;0.95;;;25.80;43.90;;;;;;4956887;29;20199;-71
2022/05/25 11:55:22;;;;;;;0.90;0.90;;;25.80;44.00;;;;;;4945433;28;20202;-71
2022/05/25 11:57:56;;;;;;;0.90;0.90;;;25.80;44.10;;;;;;4957664;28;20210;-71
2022/05/25 12:00:31;;;;;;;1.02;1.02;;;25.80;44.20;;;;;;4958709;28;20629;-71
2022/05/25 12:03:12;;;;;;;0.82;0.82;;;25.80;44.20;;;;;;5003180;23;20228;-66
2022/05/25 12:05:46;;;;;;;0.88;0.88;;;25.80;44.20;;;;;;4976094;28;20747;-66
2022/05/25 12:08:28;;;;;;;0.82;0.82;;;25.80;44.10;;;;;;4977506;28;20205;-66
2022/05/25 12:11:26;;;;;;;1.00;1.00;;;25.80;44.00;;;;;;4977469;28;20177;-66
2022/05/25 12:13:57;;;;;;;1.10;1.10;;;25.80;44.00;;;;;;4975661;28;20697;-66
2022/05/25 12:16:27;;;;;;;0.80;0.80;;;25.90;44.10;;;;;;4975792;28;20667;-66
2022/05/25 12:18:57;;;;;;;1.00;1.00;;;25.90;44.10;;;;;;4975646;28;20666;-66
2022/05/25 12:21:26;;;;;;;0.90;0.90;;;25.80;44.20;;;;;;4976957;28;20276;-66
2022/05/25 12:23:59;;;;;;;0.95;0.95;;;25.80;44.20;;;;;;4975659;28;20214;-66
2022/05/25 12:26:27;;;;;;;1.10;1.00;;;25.80;44.40;;;;;;4977219;28;20186;-66
2022/05/25 12:28:58;;;;;;;0.90;0.90;;;25.70;44.20;;;;;;4975431;28;20677;-66
2022/05/25 12:31:27;;;;;;;0.80;0.80;;;25.70;44.50;;;;;;4976921;28;20186;-66
2022/05/25 12:33:54;;;;;;;1.05;0.85;;;25.60;44.60;;;;;;4976594;28;20589;-66
2022/05/25 12:36:21;;;;;;;0.82;0.82;;;25.60;44.70;;;;;;4975377;28;20572;-66
2022/05/25 12:38:49;;;;;;;1.05;1.00;;;25.60;44.80;;;;;;4975373;28;20265;-66
2022/05/25 12:41:32;;;;;;;0.85;0.82;;;25.60;44.90;;;;;;4974411;28;20284;-66
2022/05/25 12:44:00;;;;;;;0.90;0.90;;;25.60;45.00;;;;;;4975270;28;20316;-66
2022/05/25 12:49:42;;;;;;;0.80;0.80;;;25.50;44.90;;;;;;4976558;28;20193;-66
2022/05/25 12:52:49;;;;;;;0.90;0.90;;;25.60;45.00;;;;;;4976483;28;20658;-66
2022/05/25 12:55:32;;;;;;;0.80;0.80;;;25.60;45.00;;;;;;4975097;28;20228;-66
2022/05/25 12:58:01;;;;;;;0.82;0.82;;;25.60;45.00;;;;;;4975396;28;20229;-66
2022/05/25 13:00:39;;;;;;;0.90;0.90;;;25.60;45.00;;;;;;4975044;28;20253;-66
2022/05/25 13:03:34;;;;;;;0.90;0.90;;;25.60;45.00;;;;;;4974980;28;20217;-66
2022/05/25 13:06:02;;;;;;;0.95;0.95;;;25.50;44.90;;;;;;4974768;28;20198;-66
2022/05/25 13:08:59;;;;;;;0.90;0.90;;;25.50;44.90;;;;;;4974737;28;20221;-66
2022/05/25 13:11:34;;;;;;;0.93;0.93;;;25.50;44.90;;;;;;4974977;28;20197;-66
2022/05/25 13:14:06;;;;;;;0.90;0.90;;;25.60;45.00;;;;;;4974976;28;20225;-66
2022/05/25 13:16:56;;;;;;;0.80;0.80;;;25.50;44.90;;;;;;4976012;28;20182;-66
2022/05/25 13:19:39;;;;;;;0.80;0.80;;;25.50;44.80;;;;;;4974658;28;20182;-66
2022/05/25 13:22:28;;;;;;;0.90;0.90;;;25.50;44.90;;;;;;4975934;28;20171;-66
2022/05/25 13:25:05;;;;;;;0.80;0.80;;;25.50;44.90;;;;;;4973133;28;20316;-66
2022/05/25 13:27:43;;;;;;;0.77;0.77;;;25.60;45.00;;;;;;4974508;28;20198;-66
2022/05/25 13:30:23;;;;;;;0.90;0.90;;;25.50;45.60;;;;;;4974546;28;20249;-66
2022/05/25 13:32:52;;;;;;;0.70;0.70;;;25.60;45.70;;;;;;4974445;28;20269;-66
2022/05/25 13:35:43;;;;;;;1.00;1.00;;;25.50;45.00;;;;;;4975760;28;20565;-66